Terminal Aerodrome Forecast
Issued by NWS

Home | Current Version | Previous Version | Text Only | Print | Product List | Glossary On
Versions: 1 2 3 4 5 6 7 8 9 10 11 12
000
FTUS45 KABQ 021139
TAFSAF
TAF
KSAF 021139Z 0212/0312 36007KT P6SM BKN090
     FM022000 26010G19KT P6SM VCSH SCT060 BKN090
     FM030000 VRB15G25KT P6SM VCTS BKN060CB
     FM030300 36008KT P6SM BKN090=

USA.gov is the U.S. government's official web portal to all federal, state and local government web resources and services.